createdAt,value
2018-10-02T00:00:59.078Z,7.80
2018-10-02T00:03:27.677Z,5.93
2018-10-02T00:05:56.238Z,5.60
2018-10-02T00:08:24.899Z,3.57
2018-10-02T00:10:58.816Z,5.93
2018-10-02T00:13:32.794Z,5.80
2018-10-02T00:16:01.325Z,3.27
2018-10-02T00:18:30.020Z,6.20
2018-10-02T00:20:58.628Z,5.80
2018-10-02T00:23:27.198Z,3.83
2018-10-02T00:25:55.852Z,8.27
2018-10-02T00:28:24.670Z,6.20
2018-10-02T00:30:53.252Z,5.37
2018-10-02T00:33:21.886Z,7.53
2018-10-02T00:35:50.569Z,5.03
2018-10-02T00:38:19.361Z,6.80
2018-10-02T00:40:48.026Z,6.27
2018-10-02T00:43:16.582Z,6.17
2018-10-02T00:45:45.251Z,7.10
2018-10-02T00:48:13.936Z,7.03
2018-10-02T00:50:42.540Z,4.97
2018-10-02T00:53:11.095Z,6.93
2018-10-02T00:55:39.774Z,4.73
2018-10-02T00:58:08.441Z,6.97
2018-10-02T01:00:37.070Z,7.63
2018-10-02T01:03:05.738Z,7.37
2018-10-02T01:05:34.503Z,5.43
2018-10-02T01:08:03.157Z,9.63
2018-10-02T01:10:31.795Z,10.93
2018-10-02T01:13:00.405Z,8.17
2018-10-02T01:15:29.061Z,4.63
2018-10-02T01:17:57.725Z,6.77
2018-10-02T01:20:26.372Z,6.17
2018-10-02T01:22:55.005Z,7.23
2018-10-02T01:25:23.657Z,7.67
2018-10-02T01:27:53.279Z,8.13
2018-10-02T01:30:22.034Z,9.10
2018-10-02T01:32:50.745Z,10.87
2018-10-02T01:35:19.293Z,9.87
2018-10-02T01:37:48.011Z,7.83
2018-10-02T01:40:16.605Z,11.77
2018-10-02T01:42:45.395Z,8.27
2018-10-02T01:45:14.187Z,11.87
2018-10-02T01:47:42.827Z,10.27
2018-10-02T01:50:11.513Z,9.77
2018-10-02T01:52:40.213Z,7.60
2018-10-02T01:55:08.922Z,10.00
2018-10-02T01:57:37.655Z,12.87
2018-10-02T02:00:06.377Z,10.43
2018-10-02T02:02:35.142Z,10.67
2018-10-02T02:05:03.736Z,10.83
2018-10-02T02:07:32.326Z,10.17
2018-10-02T02:10:01.017Z,8.37
2018-10-02T02:12:29.745Z,11.30
2018-10-02T02:14:58.492Z,13.37
2018-10-02T02:17:27.211Z,9.63
2018-10-02T02:19:55.855Z,9.50
2018-10-02T02:22:24.504Z,8.67
2018-10-02T02:24:53.130Z,10.40
2018-10-02T02:27:21.849Z,11.80
2018-10-02T02:29:50.911Z,7.47
2018-10-02T02:32:19.625Z,9.70
2018-10-02T02:34:48.462Z,8.03
2018-10-02T02:37:17.229Z,7.20
2018-10-02T02:39:46.039Z,9.87
2018-10-02T02:42:14.777Z,10.53
2018-10-02T02:44:43.617Z,8.73
2018-10-02T02:47:17.433Z,11.47
2018-10-02T02:49:51.179Z,10.10
2018-10-02T02:52:21.911Z,9.37
2018-10-02T02:54:50.493Z,10.03
2018-10-02T02:57:19.338Z,8.57
2018-10-02T02:59:48.101Z,9.43
2018-10-02T03:02:16.847Z,10.00
2018-10-02T03:04:45.556Z,7.77
2018-10-02T03:07:14.253Z,7.10
2018-10-02T03:09:42.882Z,13.90
2018-10-02T03:12:11.622Z,10.10
2018-10-02T03:14:40.287Z,6.87
2018-10-02T03:17:09.413Z,5.70
2018-10-02T03:19:38.014Z,11.33
2018-10-02T03:22:06.641Z,10.90
2018-10-02T03:24:35.207Z,5.13
2018-10-02T03:27:03.733Z,7.93
2018-10-02T03:29:32.269Z,5.47
2018-10-02T03:32:00.835Z,4.57
2018-10-02T03:34:29.381Z,5.23
2018-10-02T03:36:58.481Z,5.17
2018-10-02T03:39:27.126Z,6.10
2018-10-02T03:41:55.846Z,4.83
2018-10-02T03:44:24.481Z,5.67
2018-10-02T03:46:53.098Z,7.43
2018-10-02T03:49:21.733Z,6.10
2018-10-02T03:51:50.342Z,7.53
2018-10-02T03:54:18.953Z,5.30
2018-10-02T03:56:47.379Z,6.30
2018-10-02T03:59:15.801Z,6.07
2018-10-02T04:01:44.543Z,3.00
2018-10-02T04:04:13.191Z,6.27
2018-10-02T04:06:41.938Z,11.23
2018-10-02T04:09:11.498Z,6.00
2018-10-02T04:11:40.197Z,8.23
2018-10-02T04:14:09.220Z,10.63
2018-10-02T04:16:38.078Z,6.93
2018-10-02T04:19:06.773Z,5.23
2018-10-02T04:21:36.281Z,4.30
2018-10-02T04:24:07.748Z,5.53
2018-10-02T04:26:37.148Z,6.17
2018-10-02T04:29:06.442Z,5.33
2018-10-02T04:31:36.102Z,6.00
2018-10-02T04:34:04.986Z,4.70
2018-10-02T04:36:33.409Z,8.53
2018-10-02T04:39:01.993Z,6.57
2018-10-02T04:41:30.744Z,3.97
2018-10-02T04:43:59.467Z,4.93
2018-10-02T04:46:27.978Z,4.37
2018-10-02T04:48:56.393Z,5.50
2018-10-02T04:51:24.878Z,6.70
2018-10-02T04:53:53.320Z,7.93
2018-10-02T04:56:21.793Z,4.67
2018-10-02T04:58:50.498Z,4.80
2018-10-02T05:01:19.003Z,5.90
2018-10-02T05:03:47.741Z,8.37
2018-10-02T05:06:16.474Z,7.47
2018-10-02T05:08:46.179Z,4.73
2018-10-02T05:11:14.639Z,8.50
2018-10-02T05:13:43.355Z,6.07
2018-10-02T05:16:12.128Z,5.23
2018-10-02T05:18:40.834Z,7.87
2018-10-02T05:21:09.557Z,5.50
2018-10-02T05:23:38.098Z,5.73
2018-10-02T05:26:06.599Z,5.50
2018-10-02T05:28:35.173Z,5.17
2018-10-02T05:31:03.727Z,6.03
2018-10-02T05:33:32.251Z,5.77
2018-10-02T05:36:00.830Z,5.37
2018-10-02T05:38:29.532Z,8.17
2018-10-02T05:40:58.252Z,4.90
2018-10-02T05:43:27.287Z,8.07
2018-10-02T05:45:55.834Z,4.73
2018-10-02T05:48:24.446Z,5.03
2018-10-02T05:50:53.007Z,9.70
2018-10-02T05:53:22.353Z,7.63
2018-10-02T05:55:51.031Z,7.00
2018-10-02T05:58:19.685Z,5.10
2018-10-02T06:00:49.218Z,4.53
2018-10-02T06:03:18.007Z,6.93
2018-10-02T06:05:46.696Z,6.47
2018-10-02T06:08:16.006Z,8.03
2018-10-02T06:10:44.658Z,4.37
2018-10-02T06:13:13.362Z,7.67
2018-10-02T06:15:42.090Z,4.53
2018-10-02T06:18:10.933Z,7.50
2018-10-02T06:20:39.938Z,4.47
2018-10-02T06:23:08.746Z,5.93
2018-10-02T06:25:38.790Z,8.43
2018-10-02T06:28:07.531Z,3.70
2018-10-02T06:30:35.954Z,8.90
2018-10-02T06:33:04.361Z,5.23
2018-10-02T06:35:32.850Z,5.47
2018-10-02T06:38:01.329Z,4.60
2018-10-02T06:40:29.888Z,6.67
2018-10-02T06:42:58.198Z,5.23
2018-10-02T06:45:27.015Z,5.60
2018-10-02T06:47:55.368Z,7.07
2018-10-02T06:50:23.920Z,7.00
2018-10-02T06:52:52.316Z,4.90
2018-10-02T06:55:20.847Z,6.47
2018-10-02T06:57:49.698Z,5.87
2018-10-02T07:00:18.206Z,5.03
2018-10-02T07:02:46.608Z,4.40
2018-10-02T07:05:15.023Z,4.93
2018-10-02T07:07:43.531Z,4.33
2018-10-02T07:10:12.012Z,6.23
2018-10-02T07:12:40.498Z,7.67
2018-10-02T07:15:09.132Z,6.40
2018-10-02T07:17:37.718Z,6.33
2018-10-02T07:20:06.222Z,6.63
2018-10-02T07:22:34.622Z,3.40
2018-10-02T07:25:03.074Z,2.90
2018-10-02T07:27:31.613Z,4.87
2018-10-02T07:29:59.940Z,5.53
2018-10-02T07:32:28.399Z,5.67
2018-10-02T07:34:56.798Z,3.87
2018-10-02T07:37:25.241Z,6.37
2018-10-02T07:39:53.690Z,5.87
2018-10-02T07:42:22.153Z,3.50
2018-10-02T07:44:51.054Z,4.73
2018-10-02T07:47:19.477Z,5.30
2018-10-02T07:49:47.949Z,5.43
2018-10-02T07:52:16.356Z,6.80
2018-10-02T07:54:44.781Z,3.23
2018-10-02T07:57:13.173Z,4.97
2018-10-02T07:59:41.642Z,3.90
2018-10-02T08:02:10.114Z,4.87
2018-10-02T08:04:38.941Z,4.70
2018-10-02T08:07:07.550Z,5.77
2018-10-02T08:09:36.015Z,4.53
2018-10-02T08:12:04.510Z,2.37
2018-10-02T08:14:32.896Z,4.47
2018-10-02T08:17:01.329Z,5.07
2018-10-02T08:19:29.822Z,6.53
2018-10-02T08:21:58.234Z,4.50
2018-10-02T08:24:26.676Z,5.67
2018-10-02T08:26:55.149Z,5.27
2018-10-02T08:29:23.708Z,5.87
2018-10-02T08:31:52.101Z,4.47
2018-10-02T08:34:20.562Z,5.03
2018-10-02T08:36:49.004Z,4.13
2018-10-02T08:39:17.415Z,5.77
2018-10-02T08:41:45.877Z,4.70
2018-10-02T08:44:14.279Z,4.67
2018-10-02T08:46:42.749Z,6.40
2018-10-02T08:49:11.207Z,5.17
2018-10-02T08:51:39.869Z,3.10
2018-10-02T08:54:08.305Z,3.23
2018-10-02T08:56:36.795Z,5.67
2018-10-02T08:59:05.265Z,6.70
2018-10-02T09:01:33.704Z,3.93
2018-10-02T09:04:02.106Z,6.97
2018-10-02T09:06:30.644Z,5.10
2018-10-02T09:08:59.074Z,5.43
2018-10-02T09:11:27.502Z,3.87
2018-10-02T09:13:55.953Z,4.43
2018-10-02T09:16:24.404Z,7.13
2018-10-02T09:18:52.780Z,3.93
2018-10-02T09:21:21.197Z,6.70
2018-10-02T09:23:49.628Z,3.10
2018-10-02T09:26:17.988Z,5.83
2018-10-02T09:28:46.374Z,7.40
2018-10-02T09:31:20.167Z,5.37
2018-10-02T09:33:53.745Z,3.47
2018-10-02T09:36:27.379Z,3.53
2018-10-02T09:39:01.088Z,3.03
2018-10-02T09:41:34.801Z,3.00
2018-10-02T09:44:04.011Z,4.30
2018-10-02T09:46:32.416Z,3.30
2018-10-02T09:49:00.848Z,3.73
2018-10-02T09:51:29.261Z,5.03
2018-10-02T09:53:57.645Z,4.83
2018-10-02T09:56:30.282Z,3.07
2018-10-02T09:58:58.841Z,4.13
2018-10-02T10:01:32.385Z,4.60
2018-10-02T10:04:00.767Z,4.40
2018-10-02T10:06:29.287Z,4.40
2018-10-02T10:08:57.761Z,3.37
2018-10-02T10:11:26.204Z,4.83
2018-10-02T10:13:54.638Z,3.90
2018-10-02T10:16:23.041Z,2.20
2018-10-02T10:18:51.426Z,4.10
2018-10-02T10:21:19.985Z,7.30
2018-10-02T10:23:48.386Z,4.70
2018-10-02T10:26:16.893Z,3.67
2018-10-02T10:28:45.309Z,4.77
2018-10-02T10:31:13.709Z,4.93
2018-10-02T10:33:42.335Z,2.43
2018-10-02T10:36:10.762Z,2.93
2018-10-02T10:38:39.308Z,3.90
2018-10-02T10:41:07.856Z,2.37
2018-10-02T10:43:36.169Z,2.80
2018-10-02T10:46:04.651Z,1.97
2018-10-02T10:48:33.047Z,2.30
2018-10-02T10:51:01.488Z,2.20
2018-10-02T10:53:29.890Z,1.67
2018-10-02T10:55:58.270Z,1.37
2018-10-02T10:58:26.723Z,3.83
2018-10-02T11:00:55.257Z,2.13
2018-10-02T11:03:23.701Z,1.33
2018-10-02T11:05:52.217Z,1.10
2018-10-02T11:08:20.625Z,4.70
2018-10-02T11:10:49.084Z,1.50
2018-10-02T11:13:17.514Z,1.47
2018-10-02T11:15:46.018Z,1.60
2018-10-02T11:18:14.489Z,1.67
2018-10-02T11:20:43.060Z,0.83
2018-10-02T11:23:11.471Z,1.23
2018-10-02T11:25:39.960Z,0.90
2018-10-02T11:28:08.351Z,1.57
2018-10-02T11:30:36.841Z,2.33
2018-10-02T11:33:05.294Z,1.93
2018-10-02T11:35:33.786Z,1.17
2018-10-02T11:38:02.200Z,1.37
2018-10-02T11:40:30.600Z,1.50
2018-10-02T11:42:59.033Z,1.90
2018-10-02T11:45:27.446Z,2.80
2018-10-02T11:47:56.378Z,1.33
2018-10-02T11:50:24.869Z,1.27
2018-10-02T11:52:53.325Z,1.40
2018-10-02T11:55:21.823Z,1.87
2018-10-02T11:57:50.132Z,1.40
2018-10-02T12:00:18.582Z,1.40
2018-10-02T12:02:47.021Z,1.10
2018-10-02T12:05:15.449Z,1.60
2018-10-02T12:07:43.864Z,0.90
2018-10-02T12:10:12.285Z,1.20
2018-10-02T12:12:40.808Z,0.83
2018-10-02T12:15:09.380Z,0.83
2018-10-02T12:17:37.804Z,1.17
2018-10-02T12:20:06.342Z,0.80
2018-10-02T12:22:34.808Z,0.50
2018-10-02T12:25:03.198Z,0.53
2018-10-02T12:27:31.634Z,0.40
2018-10-02T12:30:00.040Z,0.50
2018-10-02T12:32:28.545Z,0.93
2018-10-02T12:34:56.950Z,0.53
2018-10-02T12:37:25.538Z,0.60
2018-10-02T12:39:53.939Z,1.07
2018-10-02T12:42:22.365Z,0.40
2018-10-02T12:44:50.849Z,0.40
2018-10-02T12:47:19.239Z,0.97
2018-10-02T12:49:47.635Z,0.87
2018-10-02T12:52:16.264Z,0.40
2018-10-02T12:54:44.595Z,0.47
2018-10-02T12:57:13.175Z,2.20
2018-10-02T12:59:41.578Z,1.77
2018-10-02T13:02:09.950Z,1.47
2018-10-02T13:04:38.367Z,0.93
2018-10-02T13:07:06.857Z,0.57
2018-10-02T13:09:35.246Z,1.27
2018-10-02T13:12:03.594Z,0.40
2018-10-02T13:14:32.042Z,0.90
2018-10-02T13:17:00.726Z,1.07
2018-10-02T13:19:29.372Z,4.13
2018-10-02T13:21:57.758Z,1.13
2018-10-02T13:24:26.841Z,0.80
2018-10-02T13:26:55.239Z,0.90
2018-10-02T13:29:24.237Z,0.73
2018-10-02T13:31:52.824Z,0.57
2018-10-02T13:34:21.257Z,1.90
2018-10-02T13:36:49.769Z,1.37
2018-10-02T13:39:18.213Z,1.40
2018-10-02T13:41:46.601Z,0.97
2018-10-02T13:44:15.023Z,1.43
2018-10-02T13:46:43.449Z,1.20
2018-10-02T13:49:12.159Z,1.37
2018-10-02T13:51:40.590Z,1.00
2018-10-02T13:54:09.304Z,1.00
2018-10-02T13:56:37.813Z,1.27
2018-10-02T13:59:06.321Z,1.90
2018-10-02T14:01:34.813Z,0.93
2018-10-02T14:04:03.269Z,2.20
2018-10-02T14:06:31.900Z,2.27
2018-10-02T14:09:00.612Z,2.33
2018-10-02T14:11:29.590Z,2.50
2018-10-02T14:13:58.146Z,2.43
2018-10-02T14:16:26.563Z,3.07
2018-10-02T14:18:54.981Z,1.37
2018-10-02T14:21:23.382Z,1.17
2018-10-02T14:23:51.769Z,3.80
2018-10-02T14:26:20.167Z,1.53
2018-10-02T14:28:48.634Z,1.40
2018-10-02T14:31:17.039Z,1.20
2018-10-02T14:33:45.510Z,0.70
2018-10-02T14:36:13.905Z,1.27
2018-10-02T14:38:42.779Z,2.00
2018-10-02T14:41:11.195Z,1.40
2018-10-02T14:43:39.559Z,1.83
2018-10-02T14:46:08.096Z,1.97
2018-10-02T14:48:36.499Z,2.77
2018-10-02T14:51:04.897Z,2.83
2018-10-02T14:53:33.280Z,2.80
2018-10-02T14:56:01.695Z,2.90
2018-10-02T14:58:30.174Z,3.70
2018-10-02T15:00:58.635Z,4.43
2018-10-02T15:03:27.026Z,4.27
2018-10-02T15:05:55.395Z,3.40
2018-10-02T15:08:24.650Z,3.77
2018-10-02T15:10:53.040Z,3.23
2018-10-02T15:13:21.437Z,5.60
2018-10-02T15:15:49.849Z,3.47
2018-10-02T15:18:18.355Z,3.70
2018-10-02T15:20:47.132Z,4.50
2018-10-02T15:23:15.632Z,4.53
2018-10-02T15:25:44.062Z,3.90
2018-10-02T15:28:13.005Z,3.57
2018-10-02T15:30:41.643Z,4.60
2018-10-02T15:33:10.141Z,4.17
2018-10-02T15:35:38.626Z,6.03
2018-10-02T15:38:07.327Z,2.93
2018-10-02T15:40:35.872Z,4.40
2018-10-02T15:43:04.567Z,4.87
2018-10-02T15:45:33.290Z,5.60
2018-10-02T15:48:03.281Z,5.50
2018-10-02T15:50:32.534Z,5.60
2018-10-02T15:53:01.198Z,4.87
2018-10-02T15:55:29.942Z,7.93
2018-10-02T15:57:58.617Z,6.93
2018-10-02T16:00:27.273Z,6.80
2018-10-02T16:02:56.036Z,4.17
2018-10-02T16:05:24.733Z,7.43
2018-10-02T16:07:53.443Z,6.43
2018-10-02T16:10:22.030Z,4.40
2018-10-02T16:12:50.842Z,6.73
2018-10-02T16:15:19.843Z,5.17
2018-10-02T16:17:48.547Z,6.37
2018-10-02T16:22:51.424Z,5.10
2018-10-02T16:25:20.081Z,6.73
2018-10-02T16:27:48.776Z,5.03
2018-10-02T16:30:17.714Z,5.30
2018-10-02T16:32:52.478Z,5.17
2018-10-02T16:35:21.220Z,6.17
2018-10-02T16:37:50.066Z,4.77
2018-10-02T16:40:18.745Z,5.83
2018-10-02T16:42:47.462Z,5.63
2018-10-02T16:45:17.954Z,7.50
2018-10-02T16:47:46.522Z,7.27
2018-10-02T16:50:15.037Z,5.83
2018-10-02T16:52:44.412Z,5.77
2018-10-02T16:55:13.035Z,6.47
2018-10-02T16:57:41.539Z,5.17
2018-10-02T17:00:10.349Z,6.10
2018-10-02T17:02:39.798Z,7.00
2018-10-02T17:05:08.580Z,8.37
2018-10-02T17:07:37.185Z,7.87
2018-10-02T17:10:05.826Z,7.30
2018-10-02T17:12:34.683Z,5.83
2018-10-02T17:15:03.947Z,7.90
2018-10-02T17:17:32.563Z,6.37
2018-10-02T17:20:01.679Z,8.40
2018-10-02T17:22:30.294Z,6.00
2018-10-02T17:24:58.725Z,8.93
2018-10-02T17:27:35.170Z,7.50
2018-10-02T17:32:43.787Z,8.07
2018-10-02T17:35:18.584Z,7.20
2018-10-02T17:37:48.497Z,8.50
2018-10-02T17:40:18.028Z,7.70
2018-10-02T17:42:46.702Z,7.03
2018-10-02T17:45:15.976Z,9.17
2018-10-02T17:47:50.372Z,8.40
2018-10-02T17:50:21.768Z,8.30
2018-10-02T17:52:53.662Z,10.60
2018-10-02T17:55:26.734Z,8.30
2018-10-02T17:57:55.269Z,8.70
2018-10-02T18:00:24.104Z,6.80
2018-10-02T18:02:52.659Z,7.03
2018-10-02T18:05:21.434Z,8.10
2018-10-02T18:07:55.550Z,7.63
2018-10-02T18:10:25.220Z,7.70
2018-10-02T18:12:54.589Z,7.83
2018-10-02T18:15:28.265Z,10.20
2018-10-02T18:17:57.259Z,9.80
2018-10-02T18:20:25.967Z,8.03
2018-10-02T18:22:55.346Z,9.50
2018-10-02T18:25:26.180Z,9.30
2018-10-02T18:27:55.416Z,9.67
2018-10-02T18:30:24.442Z,7.40
2018-10-02T18:33:11.723Z,7.60
2018-10-02T18:35:41.515Z,8.80
2018-10-02T18:38:10.325Z,10.20
2018-10-02T18:40:40.011Z,11.13
2018-10-02T18:43:09.012Z,7.93
2018-10-02T18:45:38.212Z,8.20
2018-10-02T18:48:16.818Z,8.47
2018-10-02T18:50:46.458Z,10.43
2018-10-02T18:53:17.074Z,8.47
2018-10-02T18:55:50.306Z,7.90
2018-10-02T18:58:19.584Z,10.70
2018-10-02T19:00:49.047Z,10.83
2018-10-02T19:03:18.719Z,9.77
2018-10-02T19:05:49.320Z,10.33
2018-10-02T19:08:27.232Z,10.90
2018-10-02T19:11:00.694Z,10.03
2018-10-02T19:13:29.734Z,12.23
2018-10-02T19:16:04.075Z,8.80
2018-10-02T19:18:33.411Z,10.13
2018-10-02T19:21:03.365Z,10.90
2018-10-02T19:23:32.622Z,10.80
2018-10-02T19:26:06.499Z,10.73
2018-10-02T19:28:40.121Z,10.43
2018-10-02T19:31:15.688Z,10.50
2018-10-02T19:33:44.996Z,10.80
2018-10-02T19:36:13.915Z,11.10
2018-10-02T19:38:56.219Z,11.10
2018-10-02T19:41:27.376Z,10.23
2018-10-02T19:43:58.267Z,12.13
2018-10-02T19:47:03.759Z,12.27
2018-10-02T19:49:34.935Z,11.17
2018-10-02T19:52:10.691Z,10.23
2018-10-02T19:54:45.573Z,10.37
2018-10-02T20:00:34.799Z,9.93
2018-10-02T20:03:06.258Z,10.70
2018-10-02T20:05:43.983Z,10.10
2018-10-02T20:08:15.318Z,10.77
2018-10-02T20:10:44.095Z,13.00
2018-10-02T20:13:13.775Z,11.37
2018-10-02T20:15:44.370Z,11.80
2018-10-02T20:18:13.935Z,11.47
2018-10-02T20:20:43.021Z,11.53
2018-10-02T20:23:11.667Z,11.13
2018-10-02T20:25:40.348Z,11.90
2018-10-02T20:28:08.984Z,10.60
2018-10-02T20:30:37.510Z,11.93
2018-10-02T20:33:06.590Z,11.90
2018-10-02T20:35:35.276Z,10.97
2018-10-02T20:38:03.943Z,12.83
2018-10-02T20:40:32.622Z,13.23
2018-10-02T20:43:01.346Z,11.07
2018-10-02T20:45:29.978Z,11.67
2018-10-02T20:47:58.759Z,11.27
2018-10-02T20:50:27.502Z,12.47
2018-10-02T20:52:56.202Z,13.03
2018-10-02T20:55:24.953Z,12.60
2018-10-02T20:57:53.710Z,11.87
2018-10-02T21:00:23.344Z,12.57
2018-10-02T21:02:52.023Z,12.20
2018-10-02T21:05:20.727Z,12.03
2018-10-02T21:07:49.313Z,14.17
2018-10-02T21:10:22.220Z,12.53
2018-10-02T21:12:51.225Z,11.50
2018-10-02T21:15:19.949Z,12.00
2018-10-02T21:17:48.444Z,12.50
2018-10-02T21:20:25.594Z,11.40
2018-10-02T21:22:54.334Z,12.53
2018-10-02T21:25:23.450Z,11.63
2018-10-02T21:27:52.046Z,11.90
2018-10-02T21:30:20.740Z,10.73
2018-10-02T21:32:49.491Z,11.33
2018-10-02T21:35:18.094Z,11.70
2018-10-02T21:37:46.819Z,11.07
2018-10-02T21:40:15.610Z,14.37
2018-10-02T21:42:45.457Z,13.37
2018-10-02T21:45:14.210Z,13.30
2018-10-02T21:47:42.830Z,12.57
2018-10-02T21:50:11.546Z,13.57
2018-10-02T21:52:40.280Z,12.67
2018-10-02T21:55:09.040Z,13.10
2018-10-02T21:57:38.157Z,15.03
2018-10-02T22:00:11.325Z,13.40
2018-10-02T22:02:39.905Z,12.80
2018-10-02T22:05:09.565Z,12.70
2018-10-02T22:07:38.712Z,14.57
2018-10-02T22:10:08.062Z,12.83
2018-10-02T22:12:36.899Z,13.73
2018-10-02T22:15:05.653Z,14.37
2018-10-02T22:17:34.641Z,13.57
2018-10-02T22:20:03.427Z,17.07
2018-10-02T22:22:32.021Z,13.03
2018-10-02T22:25:00.702Z,13.40
2018-10-02T22:27:29.274Z,14.23
2018-10-02T22:29:57.938Z,13.63
2018-10-02T22:32:26.504Z,12.30
2018-10-02T22:34:56.682Z,12.30
2018-10-02T22:37:25.261Z,12.53
2018-10-02T22:39:54.400Z,12.87
2018-10-02T22:42:23.241Z,12.20
2018-10-02T22:44:52.241Z,11.60
2018-10-02T22:47:20.911Z,12.40
2018-10-02T22:49:49.509Z,12.70
2018-10-02T22:52:18.110Z,12.97
2018-10-02T22:54:46.882Z,11.83
2018-10-02T22:57:15.600Z,10.13
2018-10-02T22:59:44.336Z,13.13
2018-10-02T23:02:13.136Z,10.40
2018-10-02T23:04:41.654Z,10.60
2018-10-02T23:07:10.698Z,9.93
2018-10-02T23:09:39.256Z,9.80
2018-10-02T23:12:07.651Z,9.57
2018-10-02T23:14:36.155Z,11.60
2018-10-02T23:17:04.757Z,10.33
2018-10-02T23:19:33.482Z,10.00
2018-10-02T23:22:02.123Z,9.80
2018-10-02T23:24:31.100Z,9.07
2018-10-02T23:26:59.993Z,9.40
2018-10-02T23:29:28.576Z,9.03
2018-10-02T23:31:57.262Z,9.47
2018-10-02T23:34:25.910Z,8.63
2018-10-02T23:36:54.578Z,10.57
2018-10-02T23:39:23.216Z,9.50
2018-10-02T23:41:51.883Z,9.87
2018-10-02T23:44:20.672Z,9.23
2018-10-02T23:46:49.269Z,12.03
2018-10-02T23:49:17.891Z,9.97
2018-10-02T23:51:46.743Z,11.43
2018-10-02T23:54:15.417Z,10.33
2018-10-02T23:56:44.085Z,8.67
2018-10-02T23:59:12.843Z,13.83
